createdAt,value
2019-02-17T00:00:41.569Z,294.64
2019-02-17T00:01:41.834Z,295.63
2019-02-17T00:02:42.020Z,295.47
2019-02-17T00:03:42.250Z,295.27
2019-02-17T00:04:42.471Z,295.34
2019-02-17T00:05:42.712Z,295.44
2019-02-17T00:06:42.916Z,296.23
2019-02-17T00:07:43.153Z,295.58
2019-02-17T00:08:43.393Z,295.28
2019-02-17T00:09:43.640Z,295.31
2019-02-17T00:10:44.206Z,295.40
2019-02-17T00:11:44.401Z,295.88
2019-02-17T00:12:44.640Z,295.53
2019-02-17T00:13:44.888Z,295.69
2019-02-17T00:14:45.111Z,295.38
2019-02-17T00:15:45.362Z,295.81
2019-02-17T00:16:45.581Z,295.57
2019-02-17T00:17:45.844Z,295.11
2019-02-17T00:18:46.146Z,295.36
2019-02-17T00:19:46.296Z,295.97
2019-02-17T00:20:46.779Z,295.64
2019-02-17T00:21:46.763Z,295.59
2019-02-17T00:22:47.027Z,295.75
2019-02-17T00:23:47.242Z,295.19
2019-02-17T00:24:47.479Z,295.65
2019-02-17T00:25:47.748Z,295.91
2019-02-17T00:26:48.054Z,295.63
2019-02-17T00:27:48.207Z,295.68
2019-02-17T00:28:48.440Z,295.65
2019-02-17T00:29:48.680Z,295.48
2019-02-17T00:30:48.927Z,295.71
2019-02-17T00:31:49.154Z,295.07
2019-02-17T00:32:49.421Z,295.22
2019-02-17T00:33:49.652Z,295.35
2019-02-17T00:34:49.923Z,295.07
2019-02-17T00:35:50.090Z,294.70
2019-02-17T00:36:50.329Z,294.91
2019-02-17T00:37:50.587Z,295.12
2019-02-17T00:38:50.825Z,295.48
2019-02-17T00:39:51.029Z,295.25
2019-02-17T00:40:51.290Z,295.21
2019-02-17T00:41:51.519Z,295.42
2019-02-17T00:42:51.823Z,295.47
2019-02-17T00:43:51.924Z,295.35
2019-02-17T00:44:52.155Z,295.32
2019-02-17T00:45:52.393Z,295.44
2019-02-17T00:46:52.615Z,295.40
2019-02-17T00:47:52.838Z,295.05
2019-02-17T00:48:53.122Z,295.07
2019-02-17T00:49:53.308Z,295.52
2019-02-17T00:50:53.829Z,295.87
2019-02-17T00:51:53.883Z,295.83
2019-02-17T00:52:54.092Z,295.52
2019-02-17T00:53:54.362Z,295.70
2019-02-17T00:54:54.565Z,295.19
2019-02-17T00:55:54.809Z,295.11
2019-02-17T00:56:55.044Z,295.21
2019-02-17T00:57:55.301Z,295.11
2019-02-17T00:58:55.564Z,294.97
2019-02-17T00:59:55.863Z,295.44
2019-02-17T01:00:57.392Z,296.05
2019-02-17T01:01:56.244Z,295.73
2019-02-17T01:02:56.481Z,295.52
2019-02-17T01:03:56.750Z,295.63
2019-02-17T01:04:56.945Z,295.36
2019-02-17T01:05:57.188Z,295.29
2019-02-17T01:06:57.409Z,295.07
2019-02-17T01:07:57.775Z,294.95
2019-02-17T01:08:57.962Z,295.53
2019-02-17T01:09:58.146Z,295.33
2019-02-17T01:10:58.379Z,295.38
2019-02-17T01:11:58.622Z,294.89
2019-02-17T01:12:58.877Z,295.37
2019-02-17T01:13:59.156Z,294.67
2019-02-17T01:14:59.351Z,294.63
2019-02-17T01:15:59.635Z,294.85
2019-02-17T01:16:59.826Z,295.81
2019-02-17T01:18:00.039Z,295.62
2019-02-17T01:19:00.355Z,295.37
2019-02-17T01:20:00.524Z,294.91
2019-02-17T01:21:00.760Z,295.62
2019-02-17T01:22:01.014Z,295.64
2019-02-17T01:23:01.235Z,295.46
2019-02-17T01:24:01.521Z,295.40
2019-02-17T01:25:01.698Z,295.18
2019-02-17T01:26:01.936Z,295.10
2019-02-17T01:27:02.197Z,295.44
2019-02-17T01:28:02.433Z,295.11
2019-02-17T01:29:02.765Z,295.47
2019-02-17T01:30:02.898Z,295.27
2019-02-17T01:31:03.142Z,294.88
2019-02-17T01:32:03.418Z,295.40
2019-02-17T01:33:03.695Z,295.25
2019-02-17T01:34:03.883Z,295.48
2019-02-17T01:35:04.088Z,295.61
2019-02-17T01:36:04.337Z,295.18
2019-02-17T01:37:04.588Z,295.20
2019-02-17T01:38:04.791Z,295.02
2019-02-17T01:39:05.129Z,295.29
2019-02-17T01:40:05.298Z,294.86
2019-02-17T01:41:05.633Z,295.41
2019-02-17T01:42:05.772Z,294.96
2019-02-17T01:43:05.986Z,294.98
2019-02-17T01:44:06.565Z,295.33
2019-02-17T01:45:06.473Z,295.46
2019-02-17T01:46:06.712Z,295.15
2019-02-17T01:47:06.958Z,295.38
2019-02-17T01:48:07.186Z,295.69
2019-02-17T01:49:07.527Z,295.15
2019-02-17T01:50:07.642Z,294.86
2019-02-17T01:51:07.871Z,295.55
2019-02-17T01:52:08.140Z,295.53
2019-02-17T01:53:08.353Z,295.51
2019-02-17T01:54:08.666Z,295.67
2019-02-17T01:55:08.842Z,295.15
2019-02-17T01:56:09.075Z,295.73
2019-02-17T01:57:09.351Z,295.28
2019-02-17T01:58:09.522Z,295.97
2019-02-17T01:59:09.830Z,295.88
2019-02-17T02:00:10.285Z,295.45
2019-02-17T02:01:10.258Z,296.05
2019-02-17T02:02:10.737Z,295.63
2019-02-17T02:03:10.732Z,295.53
2019-02-17T02:04:10.964Z,295.75
2019-02-17T02:05:11.251Z,295.22
2019-02-17T02:06:11.466Z,295.92
2019-02-17T02:07:11.694Z,295.65
2019-02-17T02:08:11.921Z,296.16
2019-02-17T02:09:12.178Z,295.23
2019-02-17T02:10:12.402Z,295.33
2019-02-17T02:11:12.626Z,295.06
2019-02-17T02:12:12.865Z,295.05
2019-02-17T02:13:13.130Z,294.73
2019-02-17T02:14:13.461Z,295.38
2019-02-17T02:15:13.629Z,294.86
2019-02-17T02:16:13.849Z,295.41
2019-02-17T02:17:14.089Z,295.44
2019-02-17T02:18:14.311Z,296.23
2019-02-17T02:19:14.577Z,295.29
2019-02-17T02:20:14.836Z,295.69
2019-02-17T02:21:15.038Z,295.68
2019-02-17T02:22:15.425Z,295.88
2019-02-17T02:23:15.516Z,295.04
2019-02-17T02:24:15.745Z,295.15
2019-02-17T02:25:16.019Z,295.16
2019-02-17T02:26:16.234Z,295.03
2019-02-17T02:27:16.473Z,295.68
2019-02-17T02:28:16.713Z,295.30
2019-02-17T02:29:16.928Z,294.80
2019-02-17T02:30:17.259Z,294.72
2019-02-17T02:31:17.397Z,294.69
2019-02-17T02:32:17.713Z,294.46
2019-02-17T02:33:17.865Z,294.92
2019-02-17T02:34:18.090Z,295.20
2019-02-17T02:35:18.348Z,295.29
2019-02-17T02:36:18.553Z,295.37
2019-02-17T02:37:18.821Z,294.83
2019-02-17T02:38:19.100Z,294.45
2019-02-17T02:39:19.282Z,294.63
2019-02-17T02:40:19.562Z,295.31
2019-02-17T02:41:19.754Z,295.60
2019-02-17T02:42:19.992Z,294.93
2019-02-17T02:43:20.231Z,294.67
2019-02-17T02:44:20.483Z,295.00
2019-02-17T02:45:20.788Z,294.93
2019-02-17T02:46:20.994Z,294.93
2019-02-17T02:47:21.280Z,294.62
2019-02-17T02:48:21.441Z,294.68
2019-02-17T02:49:21.677Z,295.41
2019-02-17T02:50:21.957Z,294.81
2019-02-17T02:51:22.151Z,294.76
2019-02-17T02:52:22.408Z,294.67
2019-02-17T02:53:22.611Z,294.79
2019-02-17T02:54:22.877Z,295.24
2019-02-17T02:55:23.279Z,295.08
2019-02-17T02:56:23.350Z,294.79
2019-02-17T02:57:23.607Z,295.01
2019-02-17T02:58:23.809Z,294.72
2019-02-17T02:59:24.058Z,294.85
2019-02-17T03:00:24.322Z,294.89
2019-02-17T03:01:24.531Z,295.05
2019-02-17T03:02:24.787Z,294.15
2019-02-17T03:03:25.110Z,294.91
2019-02-17T03:04:25.235Z,295.63
2019-02-17T03:05:25.528Z,296.37
2019-02-17T03:06:25.702Z,296.16
2019-02-17T03:07:25.969Z,295.06
2019-02-17T03:08:26.188Z,295.05
2019-02-17T03:09:26.410Z,294.42
2019-02-17T03:10:26.707Z,295.26
2019-02-17T03:11:26.952Z,294.63
2019-02-17T03:12:27.136Z,295.19
2019-02-17T03:13:27.383Z,294.86
2019-02-17T03:14:27.620Z,294.90
2019-02-17T03:15:27.884Z,294.35
2019-02-17T03:16:28.097Z,295.27
2019-02-17T03:17:28.347Z,295.23
2019-02-17T03:18:28.594Z,294.95
2019-02-17T03:19:28.873Z,294.48
2019-02-17T03:20:29.113Z,295.26
2019-02-17T03:21:29.287Z,295.27
2019-02-17T03:22:29.548Z,294.62
2019-02-17T03:23:29.803Z,295.54
2019-02-17T03:24:30.037Z,294.45
2019-02-17T03:25:30.313Z,294.69
2019-02-17T03:26:30.510Z,295.15
2019-02-17T03:27:30.772Z,294.72
2019-02-17T03:28:31.109Z,295.17
2019-02-17T03:29:31.226Z,295.07
2019-02-17T03:30:31.489Z,294.52
2019-02-17T03:31:31.718Z,294.96
2019-02-17T03:32:31.926Z,295.16
2019-02-17T03:33:32.194Z,294.93
2019-02-17T03:34:32.415Z,294.85
2019-02-17T03:35:32.669Z,295.07
2019-02-17T03:36:33.021Z,295.14
2019-02-17T03:37:33.102Z,294.81
2019-02-17T03:38:33.372Z,294.61
2019-02-17T03:39:33.593Z,295.09
2019-02-17T03:40:33.875Z,294.12
2019-02-17T03:41:34.308Z,294.71
2019-02-17T03:42:34.313Z,294.61
2019-02-17T03:43:34.555Z,294.13
2019-02-17T03:44:34.834Z,294.78
2019-02-17T03:45:35.034Z,294.82
2019-02-17T03:46:35.262Z,295.08
2019-02-17T03:47:35.490Z,294.35
2019-02-17T03:48:35.745Z,294.90
2019-02-17T03:49:35.950Z,293.89
2019-02-17T03:50:36.231Z,294.56
2019-02-17T03:51:36.451Z,294.00
2019-02-17T03:52:36.733Z,293.88
2019-02-17T03:53:36.921Z,293.75
2019-02-17T03:54:37.127Z,294.06
2019-02-17T03:55:37.388Z,294.12
2019-02-17T03:56:37.625Z,294.05
2019-02-17T03:57:37.852Z,294.28
2019-02-17T03:58:38.111Z,294.19
2019-02-17T03:59:38.331Z,294.54
2019-02-17T04:00:38.621Z,294.22
2019-02-17T04:01:38.850Z,293.82
2019-02-17T04:02:39.062Z,293.95
2019-02-17T04:03:39.303Z,293.82
2019-02-17T04:04:39.519Z,293.57
2019-02-17T04:05:39.772Z,293.83
2019-02-17T04:06:39.992Z,293.84
2019-02-17T04:07:40.239Z,294.32
2019-02-17T04:08:40.506Z,293.41
2019-02-17T04:09:40.817Z,294.07
2019-02-17T04:10:40.945Z,293.96
2019-02-17T04:11:41.178Z,293.96
2019-02-17T04:12:41.443Z,294.34
2019-02-17T04:13:41.684Z,294.16
2019-02-17T04:14:41.908Z,294.02
2019-02-17T04:15:42.166Z,293.70
2019-02-17T04:16:42.368Z,293.96
2019-02-17T04:17:42.664Z,293.51
2019-02-17T04:18:42.872Z,294.57
2019-02-17T04:19:43.089Z,293.97
2019-02-17T04:20:43.342Z,293.96
2019-02-17T04:21:43.557Z,293.80
2019-02-17T04:22:43.814Z,294.05
2019-02-17T04:23:44.072Z,293.92
2019-02-17T04:24:44.283Z,293.69
2019-02-17T04:25:44.589Z,293.79
2019-02-17T04:26:44.749Z,294.10
2019-02-17T04:27:45.002Z,293.48
2019-02-17T04:28:45.278Z,294.20
2019-02-17T04:29:45.494Z,294.34
2019-02-17T04:30:45.738Z,294.20
2019-02-17T04:31:46.022Z,294.02
2019-02-17T04:32:46.204Z,294.48
2019-02-17T04:33:46.578Z,294.10
2019-02-17T04:34:46.663Z,293.50
2019-02-17T04:35:46.911Z,294.38
2019-02-17T04:36:47.174Z,294.69
2019-02-17T04:37:47.379Z,294.22
2019-02-17T04:38:47.663Z,294.17
2019-02-17T04:39:47.853Z,294.31
2019-02-17T04:40:48.100Z,294.64
2019-02-17T04:41:48.398Z,294.32
2019-02-17T04:42:48.634Z,293.76
2019-02-17T04:43:48.839Z,294.03
2019-02-17T04:44:49.039Z,294.08
2019-02-17T04:45:49.289Z,294.25
2019-02-17T04:46:49.549Z,294.32
2019-02-17T04:47:49.769Z,294.36
2019-02-17T04:48:50.011Z,294.22
2019-02-17T04:49:50.249Z,293.74
2019-02-17T04:50:50.630Z,294.65
2019-02-17T04:51:50.754Z,294.26
2019-02-17T04:52:51.110Z,294.61
2019-02-17T04:53:51.229Z,294.12
2019-02-17T04:54:51.431Z,294.38
2019-02-17T04:55:51.667Z,294.57
2019-02-17T04:56:51.942Z,294.07
2019-02-17T04:57:52.176Z,294.12
2019-02-17T04:58:52.530Z,293.95
2019-02-17T04:59:52.604Z,293.73
2019-02-17T05:00:52.854Z,293.70
2019-02-17T05:01:53.124Z,294.58
2019-02-17T05:02:53.355Z,294.45
2019-02-17T05:03:53.599Z,294.24
2019-02-17T05:04:53.817Z,294.92
2019-02-17T05:05:54.053Z,294.86
2019-02-17T05:06:54.342Z,294.79
2019-02-17T05:07:54.532Z,294.59
2019-02-17T05:08:54.775Z,294.65
2019-02-17T05:09:54.996Z,294.21
2019-02-17T05:10:55.235Z,294.15
2019-02-17T05:11:55.488Z,294.75
2019-02-17T05:12:55.708Z,293.96
2019-02-17T05:13:55.968Z,294.09
2019-02-17T05:14:56.256Z,293.92
2019-02-17T05:15:56.413Z,294.22
2019-02-17T05:16:56.684Z,294.19
2019-02-17T05:17:56.915Z,294.40
2019-02-17T05:18:57.149Z,293.99
2019-02-17T05:19:57.401Z,294.54
2019-02-17T05:20:57.861Z,294.14
2019-02-17T05:21:57.874Z,293.40
2019-02-17T05:22:58.105Z,293.59
2019-02-17T05:23:58.410Z,293.47
2019-02-17T05:24:58.601Z,293.57
2019-02-17T05:25:58.834Z,294.18
2019-02-17T05:26:59.086Z,293.68
2019-02-17T05:27:59.316Z,294.46
2019-02-17T05:28:59.552Z,294.05
2019-02-17T05:29:59.764Z,293.96
2019-02-17T05:31:00.023Z,293.88
2019-02-17T05:32:00.412Z,293.64
2019-02-17T05:33:00.507Z,293.34
2019-02-17T05:34:00.718Z,293.95
2019-02-17T05:35:00.981Z,293.23
2019-02-17T05:36:01.233Z,293.88
2019-02-17T05:37:01.490Z,292.89
2019-02-17T05:38:01.736Z,293.78
2019-02-17T05:39:01.943Z,293.48
2019-02-17T05:40:02.246Z,293.56
2019-02-17T05:41:02.411Z,293.50
2019-02-17T05:42:02.646Z,294.15
2019-02-17T05:43:02.896Z,293.66
2019-02-17T05:44:03.122Z,293.52
2019-02-17T05:45:03.375Z,293.60
2019-02-17T05:46:03.581Z,293.44
2019-02-17T05:47:03.853Z,293.70
2019-02-17T05:48:04.130Z,293.60
2019-02-17T05:49:04.290Z,293.52
2019-02-17T05:50:04.562Z,293.52
2019-02-17T05:51:04.773Z,293.03
2019-02-17T05:52:05.013Z,293.20
2019-02-17T05:53:05.251Z,293.36
2019-02-17T05:54:05.478Z,293.27
2019-02-17T05:55:05.740Z,293.40
2019-02-17T05:56:06.025Z,293.10
2019-02-17T05:57:06.229Z,294.15
2019-02-17T05:58:06.463Z,293.76
2019-02-17T05:59:06.691Z,294.04
2019-02-17T06:00:06.953Z,293.20
2019-02-17T06:01:07.399Z,293.28
2019-02-17T06:02:07.431Z,293.37
2019-02-17T06:03:07.642Z,293.65
2019-02-17T06:04:07.886Z,294.25
2019-02-17T06:05:08.267Z,293.49
2019-02-17T06:06:08.363Z,293.52
2019-02-17T06:07:08.619Z,293.51
2019-02-17T06:08:08.831Z,293.76
2019-02-17T06:09:09.076Z,293.43
2019-02-17T06:10:09.329Z,294.00
2019-02-17T06:11:09.663Z,293.97
2019-02-17T06:12:09.799Z,293.80
2019-02-17T06:13:10.288Z,293.45
2019-02-17T06:14:10.258Z,293.17
2019-02-17T06:15:10.535Z,293.38
2019-02-17T06:16:10.739Z,293.89
2019-02-17T06:17:10.992Z,294.03
2019-02-17T06:18:11.220Z,293.37
2019-02-17T06:19:11.432Z,293.92
2019-02-17T06:20:11.717Z,293.60
2019-02-17T06:21:12.001Z,293.49
2019-02-17T06:22:12.179Z,293.52
2019-02-17T06:23:12.403Z,293.89
2019-02-17T06:24:12.628Z,293.66
2019-02-17T06:25:12.898Z,293.16
2019-02-17T06:26:13.116Z,293.34
2019-02-17T06:27:13.375Z,293.12
2019-02-17T06:28:13.600Z,293.50
2019-02-17T06:29:13.859Z,293.59
2019-02-17T06:30:14.050Z,293.30
2019-02-17T06:31:14.862Z,293.09
2019-02-17T06:32:14.527Z,292.97
2019-02-17T06:33:14.778Z,293.05
2019-02-17T06:34:15.014Z,293.25
2019-02-17T06:35:15.268Z,293.64
2019-02-17T06:36:15.488Z,293.55
2019-02-17T06:37:15.743Z,292.97
2019-02-17T06:38:16.079Z,292.77
2019-02-17T06:39:16.224Z,293.78
2019-02-17T06:40:16.476Z,293.99
2019-02-17T06:41:16.690Z,293.48
2019-02-17T06:42:16.918Z,293.76
2019-02-17T06:43:17.196Z,293.49
2019-02-17T06:44:17.406Z,293.66
2019-02-17T06:45:19.526Z,294.03
2019-02-17T06:46:17.991Z,294.18
2019-02-17T06:47:18.105Z,293.19
2019-02-17T06:48:18.393Z,293.80
2019-02-17T06:49:18.594Z,293.29
2019-02-17T06:50:18.860Z,293.48
2019-02-17T06:51:19.062Z,293.05
2019-02-17T06:52:19.305Z,293.46
2019-02-17T06:53:19.553Z,292.85
2019-02-17T06:54:19.880Z,293.63
2019-02-17T06:55:20.037Z,293.51
2019-02-17T06:56:20.252Z,293.79
2019-02-17T06:57:20.487Z,293.69
2019-02-17T06:58:20.728Z,293.52
2019-02-17T06:59:21.213Z,292.94
2019-02-17T07:00:21.219Z,292.95
2019-02-17T07:01:24.574Z,293.51
2019-02-17T07:02:21.736Z,292.99
2019-02-17T07:03:21.917Z,292.92
2019-02-17T07:04:22.158Z,294.06
2019-02-17T07:05:22.437Z,293.35
2019-02-17T07:06:22.641Z,293.33
2019-02-17T07:07:22.849Z,293.12
2019-02-17T07:08:23.126Z,293.28
2019-02-17T07:09:23.325Z,293.31
2019-02-17T07:10:23.637Z,293.92
2019-02-17T07:11:23.793Z,293.18
2019-02-17T07:12:24.064Z,293.27
2019-02-17T07:13:24.294Z,293.05
2019-02-17T07:14:24.520Z,293.08
2019-02-17T07:15:24.786Z,293.51
2019-02-17T07:16:24.975Z,292.77
2019-02-17T07:17:25.231Z,293.76
2019-02-17T07:18:25.498Z,294.05
2019-02-17T07:19:25.837Z,293.69
2019-02-17T07:20:25.962Z,293.88
2019-02-17T07:21:26.168Z,293.52
2019-02-17T07:22:26.417Z,293.34
2019-02-17T07:23:26.670Z,293.36
2019-02-17T07:24:26.901Z,293.13
2019-02-17T07:25:30.081Z,293.76
2019-02-17T07:26:27.371Z,293.42
2019-02-17T07:27:27.717Z,293.15
2019-02-17T07:28:27.856Z,293.18
2019-02-17T07:29:28.094Z,293.30
2019-02-17T07:30:28.334Z,292.91
2019-02-17T07:31:34.663Z,292.96
2019-02-17T07:32:29.782Z,293.04
2019-02-17T07:33:29.059Z,293.07
2019-02-17T07:34:29.286Z,293.26
2019-02-17T07:35:29.563Z,292.90
2019-02-17T07:36:29.737Z,292.95
2019-02-17T07:37:33.269Z,292.91
2019-02-17T07:38:30.234Z,293.03
2019-02-17T07:39:30.464Z,293.01
2019-02-17T07:40:30.694Z,293.28
2019-02-17T07:41:30.947Z,293.66
2019-02-17T07:42:31.193Z,293.25
2019-02-17T07:43:31.491Z,294.01
2019-02-17T07:44:31.656Z,293.58
2019-02-17T07:45:31.888Z,294.30
2019-02-17T07:46:32.145Z,293.83
2019-02-17T07:47:32.377Z,293.91
2019-02-17T07:48:32.632Z,293.68
2019-02-17T07:49:32.835Z,293.61
2019-02-17T07:50:33.093Z,293.89
2019-02-17T07:51:33.399Z,294.17
2019-02-17T07:52:34.275Z,294.50
2019-02-17T07:53:33.837Z,294.55
2019-02-17T07:54:34.069Z,294.10
2019-02-17T07:55:34.303Z,293.85
2019-02-17T07:56:34.571Z,294.00
2019-02-17T07:57:34.791Z,294.16
2019-02-17T07:58:35.045Z,295.39
2019-02-17T07:59:35.320Z,295.88
2019-02-17T08:00:35.584Z,294.15
2019-02-17T08:01:44.733Z,293.62
2019-02-17T08:02:36.975Z,293.00
2019-02-17T08:03:36.232Z,293.32
2019-02-17T08:04:36.461Z,293.04
2019-02-17T08:05:36.675Z,293.78
2019-02-17T08:06:36.944Z,293.38
2019-02-17T08:07:37.177Z,293.44
2019-02-17T08:08:37.561Z,294.63
2019-02-17T08:09:37.758Z,293.74
2019-02-17T08:10:37.916Z,293.86
2019-02-17T08:11:38.189Z,294.01
2019-02-17T08:12:38.408Z,293.47
2019-02-17T08:13:38.662Z,293.68
2019-02-17T08:14:38.894Z,293.34
2019-02-17T08:15:39.121Z,293.06
2019-02-17T08:16:39.443Z,293.07
2019-02-17T08:17:39.582Z,293.10
2019-02-17T08:18:39.843Z,293.40
2019-02-17T08:19:40.068Z,293.22
2019-02-17T08:20:40.304Z,292.88
2019-02-17T08:21:40.556Z,292.79
2019-02-17T08:22:40.759Z,292.98
2019-02-17T08:23:41.032Z,293.12
2019-02-17T08:24:41.331Z,293.03
2019-02-17T08:25:41.489Z,293.24
2019-02-17T08:26:41.743Z,292.87
2019-02-17T08:27:41.963Z,293.45
2019-02-17T08:28:42.536Z,293.44
2019-02-17T08:29:42.492Z,293.05
2019-02-17T08:30:42.696Z,293.53
2019-02-17T08:31:42.950Z,293.53
2019-02-17T08:32:44.026Z,293.37
2019-02-17T08:33:43.495Z,292.64
2019-02-17T08:34:43.726Z,293.43
2019-02-17T08:35:44.171Z,293.68
2019-02-17T08:36:44.195Z,293.47
2019-02-17T08:37:44.445Z,293.73
2019-02-17T08:38:44.670Z,293.27
2019-02-17T08:39:44.918Z,293.32
2019-02-17T08:40:45.125Z,293.22
2019-02-17T08:41:45.532Z,293.29
2019-02-17T08:42:45.598Z,293.40
2019-02-17T08:43:45.842Z,293.19
2019-02-17T08:44:46.117Z,292.99
2019-02-17T08:45:46.312Z,293.37
2019-02-17T08:46:46.592Z,293.45
2019-02-17T08:47:46.807Z,293.37
2019-02-17T08:48:47.045Z,292.68
2019-02-17T08:49:47.978Z,293.05
2019-02-17T08:50:47.536Z,292.61
2019-02-17T08:51:47.990Z,293.01
2019-02-17T08:52:48.109Z,293.22
2019-02-17T08:53:48.250Z,293.33
2019-02-17T08:54:49.126Z,293.42
2019-02-17T08:55:48.712Z,293.28
2019-02-17T08:56:48.969Z,293.49
2019-02-17T08:57:49.242Z,293.05
2019-02-17T08:58:49.559Z,293.20
2019-02-17T08:59:49.717Z,293.07
2019-02-17T09:00:49.908Z,292.56
2019-02-17T09:01:50.148Z,293.10
2019-02-17T09:02:50.369Z,292.56
2019-02-17T09:03:50.620Z,293.05
2019-02-17T09:04:50.890Z,293.41
2019-02-17T09:05:51.170Z,292.78
2019-02-17T09:06:51.348Z,293.05
2019-02-17T09:07:51.558Z,292.72
2019-02-17T09:08:51.798Z,292.38
2019-02-17T09:09:52.079Z,292.60
2019-02-17T09:10:52.298Z,293.18
2019-02-17T09:11:52.562Z,293.22
2019-02-17T09:12:52.777Z,293.27
2019-02-17T09:13:53.019Z,293.55
2019-02-17T09:14:53.386Z,292.60
2019-02-17T09:15:53.517Z,293.01
2019-02-17T09:16:53.834Z,292.80
2019-02-17T09:17:53.966Z,293.31
2019-02-17T09:18:54.177Z,292.36
2019-02-17T09:19:54.455Z,292.90
2019-02-17T09:20:54.684Z,292.41
2019-02-17T09:21:55.066Z,292.79
2019-02-17T09:22:55.486Z,292.57
2019-02-17T09:23:55.355Z,292.86
2019-02-17T09:24:55.626Z,293.51
2019-02-17T09:25:55.846Z,293.82
2019-02-17T09:26:56.115Z,292.93
2019-02-17T09:27:56.329Z,296.20
2019-02-17T09:28:56.570Z,293.43
2019-02-17T09:29:56.807Z,293.03
2019-02-17T09:30:57.132Z,293.60
2019-02-17T09:31:59.308Z,293.10
2019-02-17T09:32:57.522Z,292.42
2019-02-17T09:33:57.759Z,292.28
2019-02-17T09:34:58.015Z,293.23
2019-02-17T09:35:58.223Z,292.91
2019-02-17T09:36:58.489Z,293.37
2019-02-17T09:37:58.716Z,292.75
2019-02-17T09:38:58.981Z,293.01
2019-02-17T09:39:59.182Z,292.49
2019-02-17T09:40:59.401Z,292.67
2019-02-17T09:41:59.663Z,292.47
2019-02-17T09:42:59.894Z,292.67
2019-02-17T09:44:00.137Z,292.53
2019-02-17T09:45:00.387Z,292.56
2019-02-17T09:46:00.611Z,291.95
2019-02-17T09:47:00.887Z,292.41
2019-02-17T09:48:01.128Z,292.15
2019-02-17T09:49:01.332Z,292.10
2019-02-17T09:50:01.584Z,292.60
2019-02-17T09:51:01.815Z,293.02
2019-02-17T09:52:02.055Z,292.98
2019-02-17T09:53:02.261Z,290.37
2019-02-17T09:54:02.514Z,289.58
2019-02-17T09:55:03.634Z,288.80
2019-02-17T09:56:03.131Z,290.48
2019-02-17T09:57:03.235Z,290.60
2019-02-17T09:58:03.464Z,290.46
2019-02-17T09:59:03.700Z,291.00
2019-02-17T10:00:03.953Z,291.10
2019-02-17T10:01:04.177Z,291.34
2019-02-17T10:02:04.417Z,291.10
2019-02-17T10:03:04.646Z,291.80
2019-02-17T10:04:05.020Z,291.11
2019-02-17T10:05:05.166Z,290.75
2019-02-17T10:06:05.401Z,291.30
2019-02-17T10:07:05.630Z,292.89
2019-02-17T10:08:05.862Z,292.13
2019-02-17T10:09:06.116Z,292.55
2019-02-17T10:10:06.386Z,292.11
2019-02-17T10:11:06.637Z,290.57
2019-02-17T10:12:06.925Z,290.98
2019-02-17T10:13:07.307Z,291.08
2019-02-17T10:14:07.292Z,290.79
2019-02-17T10:15:07.562Z,291.24
2019-02-17T10:16:07.834Z,291.74
2019-02-17T10:17:08.060Z,291.89
2019-02-17T10:18:08.280Z,291.77
2019-02-17T10:19:08.498Z,291.83
2019-02-17T10:20:08.777Z,291.78
2019-02-17T10:21:08.977Z,291.40
2019-02-17T10:22:09.194Z,291.10
2019-02-17T10:23:09.453Z,292.01
2019-02-17T10:24:09.679Z,292.19
2019-02-17T10:25:09.935Z,291.77
2019-02-17T10:26:10.173Z,292.18
2019-02-17T10:27:10.383Z,291.03
2019-02-17T10:28:10.701Z,291.73
2019-02-17T10:29:10.929Z,291.35
2019-02-17T10:30:11.135Z,291.69
2019-02-17T10:31:11.828Z,292.14
2019-02-17T10:32:11.593Z,291.98
2019-02-17T10:33:11.849Z,291.34
2019-02-17T10:34:12.066Z,291.17
2019-02-17T10:35:12.326Z,292.40
2019-02-17T10:36:12.583Z,292.36
2019-02-17T10:37:12.864Z,291.76
2019-02-17T10:38:13.031Z,291.99
2019-02-17T10:39:13.252Z,292.11
2019-02-17T10:40:13.500Z,291.70
2019-02-17T10:41:13.745Z,291.85
2019-02-17T10:42:13.948Z,293.49
2019-02-17T10:43:14.224Z,292.89
2019-02-17T10:44:14.444Z,292.55
2019-02-17T10:45:14.794Z,291.93
2019-02-17T10:46:14.947Z,292.05
2019-02-17T10:47:15.129Z,292.05
2019-02-17T10:48:15.401Z,291.34
2019-02-17T10:49:15.621Z,292.13
2019-02-17T10:50:15.866Z,292.58
2019-02-17T10:51:16.149Z,292.18
2019-02-17T10:52:16.331Z,292.45
2019-02-17T10:53:16.600Z,291.12
2019-02-17T10:54:16.791Z,291.61
2019-02-17T10:55:17.051Z,291.89
2019-02-17T10:56:17.294Z,291.57
2019-02-17T10:57:17.507Z,290.71
2019-02-17T10:58:17.770Z,291.06
2019-02-17T10:59:17.960Z,291.35
2019-02-17T11:00:18.216Z,290.91
2019-02-17T11:01:18.550Z,291.38
2019-02-17T11:02:18.711Z,291.38
2019-02-17T11:03:18.987Z,291.70
2019-02-17T11:04:19.185Z,292.15
2019-02-17T11:05:19.413Z,293.44
2019-02-17T11:06:19.680Z,293.50
2019-02-17T11:07:19.918Z,292.25
2019-02-17T11:08:20.178Z,291.75
2019-02-17T11:09:20.417Z,290.99
2019-02-17T11:10:20.739Z,290.97
2019-02-17T11:11:20.887Z,291.03
2019-02-17T11:12:23.448Z,290.83
2019-02-17T11:13:21.374Z,290.60
2019-02-17T11:14:21.594Z,290.77
2019-02-17T11:15:21.831Z,289.35
2019-02-17T11:16:22.060Z,290.85
2019-02-17T11:17:22.314Z,290.73
2019-02-17T11:18:22.680Z,291.06
2019-02-17T11:19:22.781Z,290.25
2019-02-17T11:20:23.008Z,290.42
2019-02-17T11:21:28.048Z,290.87
2019-02-17T11:22:23.558Z,290.13
2019-02-17T11:23:23.757Z,290.69
2019-02-17T11:24:29.068Z,289.94
2019-02-17T11:25:24.219Z,290.62
2019-02-17T11:26:24.550Z,290.58
2019-02-17T11:27:24.680Z,290.45
2019-02-17T11:28:24.936Z,288.99
2019-02-17T11:29:25.157Z,290.25
2019-02-17T11:30:25.394Z,289.73
2019-02-17T11:31:25.650Z,288.97
2019-02-17T11:32:25.882Z,289.32
2019-02-17T11:33:26.164Z,289.36
2019-02-17T11:34:26.429Z,289.48
2019-02-17T11:35:26.593Z,289.24
2019-02-17T11:36:26.857Z,289.75
2019-02-17T11:37:27.086Z,288.46
2019-02-17T11:38:27.317Z,289.44
2019-02-17T11:39:27.552Z,288.31
2019-02-17T11:40:27.804Z,288.99
2019-02-17T11:41:28.062Z,289.22
2019-02-17T11:42:28.393Z,289.84
2019-02-17T11:43:28.537Z,289.47
2019-02-17T11:44:28.755Z,290.60
2019-02-17T11:45:29.007Z,290.23
2019-02-17T11:46:29.262Z,290.33
2019-02-17T11:47:29.491Z,291.05
2019-02-17T11:48:29.736Z,289.67
2019-02-17T11:49:29.955Z,288.72
2019-02-17T11:50:30.219Z,289.22
2019-02-17T11:51:30.544Z,289.63
2019-02-17T11:52:30.912Z,289.94
2019-02-17T11:53:30.921Z,289.16
2019-02-17T11:54:31.150Z,290.53
2019-02-17T11:55:31.380Z,291.30
2019-02-17T11:56:31.654Z,289.96
2019-02-17T11:57:31.882Z,288.78
2019-02-17T11:58:32.140Z,290.01
2019-02-17T11:59:32.483Z,289.96
2019-02-17T12:00:32.571Z,289.02
2019-02-17T12:01:32.839Z,289.17
2019-02-17T12:02:33.074Z,289.21
2019-02-17T12:03:33.319Z,289.71
2019-02-17T12:04:33.547Z,289.98
2019-02-17T12:05:33.782Z,290.38
2019-02-17T12:06:34.025Z,290.44
2019-02-17T12:07:34.359Z,290.00
2019-02-17T12:08:34.518Z,289.55
2019-02-17T12:09:34.730Z,290.25
2019-02-17T12:10:34.978Z,290.30
2019-02-17T12:11:35.208Z,290.52
2019-02-17T12:12:35.460Z,290.70
2019-02-17T12:13:35.798Z,290.90
2019-02-17T12:14:35.945Z,289.23
2019-02-17T12:15:36.226Z,289.51
2019-02-17T12:16:37.183Z,289.73
2019-02-17T12:17:36.641Z,290.05
2019-02-17T12:18:36.905Z,292.31
2019-02-17T12:19:37.140Z,291.04
2019-02-17T12:20:37.360Z,290.32
2019-02-17T12:21:37.624Z,289.67
2019-02-17T12:22:37.858Z,290.64
2019-02-17T12:23:38.150Z,290.19
2019-02-17T12:24:38.342Z,290.50
2019-02-17T12:25:38.561Z,290.39
2019-02-17T12:26:38.827Z,290.28
2019-02-17T12:27:39.092Z,289.62
2019-02-17T12:28:39.281Z,290.27
2019-02-17T12:29:39.504Z,290.80
2019-02-17T12:30:39.748Z,289.55
2019-02-17T12:31:40.022Z,289.66